sensor_id;sensor_type;location;lat;lon;timestamp;P1;durP1;ratioP1;P2;durP2;ratioP2
59440;SDS011;45245;51.538;11.870;2022-08-19T03:04:59;22.67;;;20.52;;
59440;SDS011;45245;51.538;11.870;2022-08-19T03:07:24;22.70;;;20.40;;
59440;SDS011;45245;51.538;11.870;2022-08-19T03:09:50;23.08;;;20.75;;
59440;SDS011;45245;51.538;11.870;2022-08-19T03:12:15;23.13;;;20.55;;
59440;SDS011;45245;51.538;11.870;2022-08-19T03:14:40;21.83;;;19.63;;
59440;SDS011;45245;51.538;11.870;2022-08-19T03:17:06;21.90;;;19.70;;
59440;SDS011;45245;51.538;11.870;2022-08-19T03:19:31;21.33;;;19.13;;
59440;SDS011;45245;51.538;11.870;2022-08-19T03:21:57;20.52;;;18.50;;
59440;SDS011;45245;51.538;11.870;2022-08-19T03:24:22;22.42;;;20.13;;
59440;SDS011;45245;51.538;11.870;2022-08-19T03:26:49;22.92;;;20.63;;
59440;SDS011;45245;51.538;11.870;2022-08-19T03:29:17;22.70;;;20.35;;
59440;SDS011;45245;51.538;11.870;2022-08-19T03:31:43;21.77;;;19.50;;
59440;SDS011;45245;51.538;11.870;2022-08-19T03:34:10;22.20;;;19.92;;
59440;SDS011;45245;51.538;11.870;2022-08-19T03:36:37;21.23;;;19.23;;
59440;SDS011;45245;51.538;11.870;2022-08-19T03:39:06;21.27;;;19.17;;
59440;SDS011;45245;51.538;11.870;2022-08-19T03:41:39;21.63;;;18.90;;
59440;SDS011;45245;51.538;11.870;2022-08-19T03:44:05;20.38;;;18.35;;
59440;SDS011;45245;51.538;11.870;2022-08-19T03:46:31;21.77;;;19.67;;
59440;SDS011;45245;51.538;11.870;2022-08-19T03:49:00;21.02;;;18.95;;
59440;SDS011;45245;51.538;11.870;2022-08-19T03:51:29;21.15;;;18.95;;
59440;SDS011;45245;51.538;11.870;2022-08-19T03:53:56;21.00;;;18.58;;
59440;SDS011;45245;51.538;11.870;2022-08-19T03:56:23;20.77;;;18.73;;
59440;SDS011;45245;51.538;11.870;2022-08-19T03:58:53;20.55;;;18.50;;
59440;SDS011;45245;51.538;11.870;2022-08-19T04:01:20;21.05;;;19.05;;
59440;SDS011;45245;51.538;11.870;2022-08-19T04:03:50;19.85;;;17.85;;
59440;SDS011;45245;51.538;11.870;2022-08-19T04:06:16;20.70;;;18.63;;
59440;SDS011;45245;51.538;11.870;2022-08-19T04:08:44;21.85;;;18.42;;
59440;SDS011;45245;51.538;11.870;2022-08-19T04:11:12;20.02;;;17.88;;
59440;SDS011;45245;51.538;11.870;2022-08-19T04:13:40;20.48;;;18.30;;
59440;SDS011;45245;51.538;11.870;2022-08-19T04:16:08;22.17;;;19.95;;
59440;SDS011;45245;51.538;11.870;2022-08-19T04:18:40;21.38;;;19.30;;
59440;SDS011;45245;51.538;11.870;2022-08-19T04:21:06;19.95;;;17.85;;
59440;SDS011;45245;51.538;11.870;2022-08-19T04:23:32;19.98;;;18.05;;
59440;SDS011;45245;51.538;11.870;2022-08-19T04:25:57;20.42;;;18.35;;
59440;SDS011;45245;51.538;11.870;2022-08-19T04:28:23;19.55;;;17.65;;
59440;SDS011;45245;51.538;11.870;2022-08-19T04:30:49;18.90;;;17.02;;
59440;SDS011;45245;51.538;11.870;2022-08-19T04:33:18;19.80;;;17.70;;
59440;SDS011;45245;51.538;11.870;2022-08-19T04:35:46;19.73;;;17.58;;
59440;SDS011;45245;51.538;11.870;2022-08-19T04:38:14;20.05;;;18.02;;
59440;SDS011;45245;51.538;11.870;2022-08-19T04:40:46;20.80;;;18.08;;
59440;SDS011;45245;51.538;11.870;2022-08-19T04:43:33;20.38;;;18.38;;
59440;SDS011;45245;51.538;11.870;2022-08-19T04:46:06;20.55;;;18.63;;
59440;SDS011;45245;51.538;11.870;2022-08-19T04:48:33;21.90;;;19.60;;
59440;SDS011;45245;51.538;11.870;2022-08-19T04:50:59;22.70;;;20.40;;
59440;SDS011;45245;51.538;11.870;2022-08-19T04:53:25;20.95;;;18.85;;
59440;SDS011;45245;51.538;11.870;2022-08-19T04:55:53;21.35;;;19.10;;
59440;SDS011;45245;51.538;11.870;2022-08-19T04:58:19;22.17;;;19.80;;
59440;SDS011;45245;51.538;11.870;2022-08-19T05:00:45;20.25;;;18.25;;
59440;SDS011;45245;51.538;11.870;2022-08-19T05:03:10;20.98;;;18.77;;
59440;SDS011;45245;51.538;11.870;2022-08-19T05:05:39;21.80;;;19.55;;
59440;SDS011;45245;51.538;11.870;2022-08-19T05:08:07;20.38;;;18.33;;
59440;SDS011;45245;51.538;11.870;2022-08-19T05:10:37;21.70;;;19.50;;
59440;SDS011;45245;51.538;11.870;2022-08-19T05:13:03;22.35;;;20.15;;
59440;SDS011;45245;51.538;11.870;2022-08-19T05:15:29;21.48;;;19.17;;
59440;SDS011;45245;51.538;11.870;2022-08-19T05:17:54;21.30;;;19.23;;
59440;SDS011;45245;51.538;11.870;2022-08-19T05:20:38;20.73;;;18.08;;
59440;SDS011;45245;51.538;11.870;2022-08-19T05:23:23;19.15;;;17.27;;
59440;SDS011;45245;51.538;11.870;2022-08-19T05:25:49;18.30;;;16.60;;
59440;SDS011;45245;51.538;11.870;2022-08-19T05:28:15;19.27;;;17.38;;
59440;SDS011;45245;51.538;11.870;2022-08-19T05:30:40;19.63;;;17.73;;
59440;SDS011;45245;51.538;11.870;2022-08-19T05:33:06;19.20;;;17.40;;
59440;SDS011;45245;51.538;11.870;2022-08-19T05:35:35;18.40;;;16.40;;
59440;SDS011;45245;51.538;11.870;2022-08-19T05:38:03;20.02;;;17.58;;
59440;SDS011;45245;51.538;11.870;2022-08-19T05:40:28;18.10;;;16.35;;
59440;SDS011;45245;51.538;11.870;2022-08-19T05:42:55;17.40;;;15.48;;
59440;SDS011;45245;51.538;11.870;2022-08-19T05:45:20;16.85;;;15.18;;
59440;SDS011;45245;51.538;11.870;2022-08-19T05:47:46;17.65;;;16.05;;
59440;SDS011;45245;51.538;11.870;2022-08-19T05:50:12;17.83;;;15.95;;
59440;SDS011;45245;51.538;11.870;2022-08-19T05:52:38;16.30;;;14.60;;
59440;SDS011;45245;51.538;11.870;2022-08-19T05:55:03;16.13;;;14.65;;
59440;SDS011;45245;51.538;11.870;2022-08-19T05:57:31;16.10;;;14.50;;
59440;SDS011;45245;51.538;11.870;2022-08-19T05:59:56;15.15;;;13.77;;
59440;SDS011;45245;51.538;11.870;2022-08-19T06:02:25;15.95;;;13.57;;
59440;SDS011;45245;51.538;11.870;2022-08-19T06:04:51;15.65;;;14.10;;
59440;SDS011;45245;51.538;11.870;2022-08-19T06:07:16;15.45;;;13.95;;
59440;SDS011;45245;51.538;11.870;2022-08-19T06:09:42;15.07;;;13.57;;
59440;SDS011;45245;51.538;11.870;2022-08-19T06:12:07;13.82;;;12.30;;
59440;SDS011;45245;51.538;11.870;2022-08-19T06:14:34;14.98;;;13.07;;
59440;SDS011;45245;51.538;11.870;2022-08-19T06:17:00;13.95;;;12.55;;
59440;SDS011;45245;51.538;11.870;2022-08-19T06:19:27;13.77;;;12.38;;
59440;SDS011;45245;51.538;11.870;2022-08-19T06:21:54;13.82;;;12.43;;
59440;SDS011;45245;51.538;11.870;2022-08-19T06:24:21;13.63;;;12.20;;
59440;SDS011;45245;51.538;11.870;2022-08-19T06:26:50;13.32;;;12.13;;
59440;SDS011;45245;51.538;11.870;2022-08-19T06:29:21;13.98;;;12.63;;
59440;SDS011;45245;51.538;11.870;2022-08-19T06:31:51;14.23;;;11.85;;
59440;SDS011;45245;51.538;11.870;2022-08-19T06:34:18;13.15;;;11.65;;
59440;SDS011;45245;51.538;11.870;2022-08-19T06:36:45;12.73;;;11.55;;
59440;SDS011;45245;51.538;11.870;2022-08-19T06:39:16;13.27;;;11.93;;
59440;SDS011;45245;51.538;11.870;2022-08-19T06:41:48;12.70;;;11.50;;
59440;SDS011;45245;51.538;11.870;2022-08-19T06:44:14;13.00;;;11.63;;
59440;SDS011;45245;51.538;11.870;2022-08-19T06:46:40;12.77;;;11.55;;
59440;SDS011;45245;51.538;11.870;2022-08-19T06:49:07;14.05;;;12.68;;
59440;SDS011;45245;51.538;11.870;2022-08-19T06:51:38;15.23;;;11.27;;
59440;SDS011;45245;51.538;11.870;2022-08-19T06:54:05;12.27;;;11.15;;
59440;SDS011;45245;51.538;11.870;2022-08-19T06:56:31;12.70;;;11.43;;
59440;SDS011;45245;51.538;11.870;2022-08-19T06:59:03;13.02;;;11.73;;
59440;SDS011;45245;51.538;11.870;2022-08-19T07:01:34;12.77;;;11.48;;
59440;SDS011;45245;51.538;11.870;2022-08-19T07:04:04;13.13;;;11.75;;
59440;SDS011;45245;51.538;11.870;2022-08-19T07:06:33;13.57;;;12.20;;
59440;SDS011;45245;51.538;11.870;2022-08-19T07:08:59;13.52;;;11.50;;
59440;SDS011;45245;51.538;11.870;2022-08-19T07:11:24;13.95;;;12.27;;
59440;SDS011;45245;51.538;11.870;2022-08-19T07:13:50;12.70;;;11.48;;
59440;SDS011;45245;51.538;11.870;2022-08-19T07:16:17;13.80;;;12.38;;
59440;SDS011;45245;51.538;11.870;2022-08-19T07:18:47;12.88;;;11.68;;
59440;SDS011;45245;51.538;11.870;2022-08-19T07:21:15;12.23;;;10.98;;
59440;SDS011;45245;51.538;11.870;2022-08-19T07:23:45;13.88;;;11.43;;
59440;SDS011;45245;51.538;11.870;2022-08-19T07:28:41;16.97;;;12.80;;
59440;SDS011;45245;51.538;11.870;2022-08-19T07:31:09;12.85;;;11.65;;
59440;SDS011;45245;51.538;11.870;2022-08-19T07:33:36;12.63;;;11.40;;
59440;SDS011;45245;51.538;11.870;2022-08-19T07:36:07;12.48;;;11.07;;
59440;SDS011;45245;51.538;11.870;2022-08-19T07:38:33;12.30;;;11.02;;
59440;SDS011;45245;51.538;11.870;2022-08-19T07:40:59;12.65;;;11.45;;
59440;SDS011;45245;51.538;11.870;2022-08-19T07:43:26;12.80;;;11.45;;
59440;SDS011;45245;51.538;11.870;2022-08-19T07:45:52;13.55;;;12.00;;
59440;SDS011;45245;51.538;11.870;2022-08-19T07:48:21;13.35;;;11.95;;
59440;SDS011;45245;51.538;11.870;2022-08-19T07:50:50;12.60;;;11.30;;
59440;SDS011;45245;51.538;11.870;2022-08-19T07:53:26;11.90;;;10.70;;
59440;SDS011;45245;51.538;11.870;2022-08-19T07:55:53;11.90;;;10.48;;
59440;SDS011;45245;51.538;11.870;2022-08-19T07:58:21;13.02;;;11.75;;
59440;SDS011;45245;51.538;11.870;2022-08-19T08:00:47;12.05;;;10.85;;
59440;SDS011;45245;51.538;11.870;2022-08-19T08:03:15;12.35;;;10.40;;
59440;SDS011;45245;51.538;11.870;2022-08-19T08:05:42;12.10;;;10.95;;
59440;SDS011;45245;51.538;11.870;2022-08-19T08:08:27;11.48;;;10.48;;
59440;SDS011;45245;51.538;11.870;2022-08-19T08:11:02;11.95;;;10.88;;
59440;SDS011;45245;51.538;11.870;2022-08-19T08:13:28;11.27;;;10.23;;
59440;SDS011;45245;51.538;11.870;2022-08-19T08:15:53;11.95;;;10.75;;
59440;SDS011;45245;51.538;11.870;2022-08-19T08:18:18;11.90;;;10.70;;
59440;SDS011;45245;51.538;11.870;2022-08-19T08:20:45;11.32;;;10.23;;
59440;SDS011;45245;51.538;11.870;2022-08-19T08:23:11;12.15;;;9.90;;
59440;SDS011;45245;51.538;11.870;2022-08-19T08:25:50;11.68;;;10.48;;
59440;SDS011;45245;51.538;11.870;2022-08-19T08:28:17;10.82;;;9.77;;
59440;SDS011;45245;51.538;11.870;2022-08-19T08:30:42;10.73;;;9.70;;
59440;SDS011;45245;51.538;11.870;2022-08-19T08:33:10;10.93;;;9.90;;
59440;SDS011;45245;51.538;11.870;2022-08-19T08:35:36;10.60;;;9.60;;
59440;SDS011;45245;51.538;11.870;2022-08-19T08:38:01;9.50;;;8.52;;
59440;SDS011;45245;51.538;11.870;2022-08-19T08:40:33;10.90;;;9.77;;
59440;SDS011;45245;51.538;11.870;2022-08-19T08:46:07;12.75;;;10.00;;
59440;SDS011;45245;51.538;11.870;2022-08-19T08:49:54;10.35;;;8.93;;
59440;SDS011;45245;51.538;11.870;2022-08-19T08:52:18;10.18;;;9.18;;
59440;SDS011;45245;51.538;11.870;2022-08-19T08:55:06;9.32;;;8.38;;
59440;SDS011;45245;51.538;11.870;2022-08-19T09:00:15;10.00;;;8.98;;
59440;SDS011;45245;51.538;11.870;2022-08-19T09:03:03;10.00;;;9.00;;
59440;SDS011;45245;51.538;11.870;2022-08-19T09:06:18;9.77;;;8.80;;
59440;SDS011;45245;51.538;11.870;2022-08-19T09:11:21;10.63;;;9.63;;
59440;SDS011;45245;51.538;11.870;2022-08-19T09:19:12;11.07;;;9.90;;
59440;SDS011;45245;51.538;11.870;2022-08-19T09:21:37;11.52;;;10.43;;
59440;SDS011;45245;51.538;11.870;2022-08-19T09:24:03;11.07;;;10.02;;
59440;SDS011;45245;51.538;11.870;2022-08-19T09:26:30;12.15;;;10.85;;
59440;SDS011;45245;51.538;11.870;2022-08-19T09:28:57;10.63;;;9.63;;
59440;SDS011;45245;51.538;11.870;2022-08-19T09:31:25;10.52;;;9.38;;
59440;SDS011;45245;51.538;11.870;2022-08-19T09:33:52;10.73;;;9.40;;
59440;SDS011;45245;51.538;11.870;2022-08-19T09:36:22;10.95;;;9.85;;
59440;SDS011;45245;51.538;11.870;2022-08-19T09:38:49;12.02;;;10.07;;
59440;SDS011;45245;51.538;11.870;2022-08-19T09:41:17;10.48;;;9.48;;
59440;SDS011;45245;51.538;11.870;2022-08-19T09:43:44;10.93;;;9.93;;
59440;SDS011;45245;51.538;11.870;2022-08-19T09:46:11;10.52;;;9.50;;
59440;SDS011;45245;51.538;11.870;2022-08-19T09:48:38;11.30;;;10.27;;
59440;SDS011;45245;51.538;11.870;2022-08-19T09:51:10;10.75;;;9.75;;
59440;SDS011;45245;51.538;11.870;2022-08-19T09:53:40;9.90;;;8.98;;
59440;SDS011;45245;51.538;11.870;2022-08-19T09:56:06;12.18;;;9.50;;
59440;SDS011;45245;51.538;11.870;2022-08-19T09:58:32;9.10;;;8.30;;
59440;SDS011;45245;51.538;11.870;2022-08-19T10:00:59;11.07;;;9.98;;
59440;SDS011;45245;51.538;11.870;2022-08-19T10:03:27;10.20;;;9.23;;
59440;SDS011;45245;51.538;11.870;2022-08-19T10:05:54;9.68;;;8.68;;
59440;SDS011;45245;51.538;11.870;2022-08-19T10:08:28;11.18;;;9.88;;
59440;SDS011;45245;51.538;11.870;2022-08-19T10:10:56;11.27;;;10.15;;
59440;SDS011;45245;51.538;11.870;2022-08-19T10:13:23;11.05;;;9.95;;
59440;SDS011;45245;51.538;11.870;2022-08-19T10:15:51;11.95;;;10.73;;
59440;SDS011;45245;51.538;11.870;2022-08-19T10:18:18;11.65;;;10.63;;
59440;SDS011;45245;51.538;11.870;2022-08-19T10:20:46;11.60;;;10.40;;
59440;SDS011;45245;51.538;11.870;2022-08-19T10:23:12;12.13;;;10.85;;
59440;SDS011;45245;51.538;11.870;2022-08-19T10:25:37;12.13;;;10.80;;
59440;SDS011;45245;51.538;11.870;2022-08-19T10:28:03;11.30;;;10.20;;
59440;SDS011;45245;51.538;11.870;2022-08-19T10:30:31;11.40;;;10.27;;
59440;SDS011;45245;51.538;11.870;2022-08-19T10:32:57;10.65;;;9.70;;
59440;SDS011;45245;51.538;11.870;2022-08-19T10:35:22;10.65;;;9.68;;
59440;SDS011;45245;51.538;11.870;2022-08-19T10:37:47;10.63;;;9.55;;
59440;SDS011;45245;51.538;11.870;2022-08-19T10:40:13;9.85;;;8.98;;
59440;SDS011;45245;51.538;11.870;2022-08-19T10:42:38;10.32;;;9.35;;
59440;SDS011;45245;51.538;11.870;2022-08-19T10:47:50;10.10;;;9.10;;
59440;SDS011;45245;51.538;11.870;2022-08-19T10:50:17;10.00;;;9.00;;
59440;SDS011;45245;51.538;11.870;2022-08-19T10:53:04;10.80;;;9.70;;
59440;SDS011;45245;51.538;11.870;2022-08-19T10:55:33;14.15;;;10.77;;
59440;SDS011;45245;51.538;11.870;2022-08-19T10:58:18;11.43;;;10.20;;
59440;SDS011;45245;51.538;11.870;2022-08-19T11:00:51;12.65;;;10.73;;
59440;SDS011;45245;51.538;11.870;2022-08-19T11:03:18;13.00;;;11.70;;
59440;SDS011;45245;51.538;11.870;2022-08-19T11:05:56;13.95;;;12.43;;
59440;SDS011;45245;51.538;11.870;2022-08-19T11:08:23;13.02;;;11.68;;
59440;SDS011;45245;51.538;11.870;2022-08-19T11:10:50;12.85;;;11.65;;
59440;SDS011;45245;51.538;11.870;2022-08-19T11:18:39;14.60;;;13.18;;
59440;SDS011;45245;51.538;11.870;2022-08-19T11:23:39;13.27;;;11.90;;
59440;SDS011;45245;51.538;11.870;2022-08-19T11:26:04;14.43;;;12.70;;
59440;SDS011;45245;51.538;11.870;2022-08-19T11:28:29;13.23;;;11.82;;
59440;SDS011;45245;51.538;11.870;2022-08-19T11:30:55;13.48;;;12.18;;
59440;SDS011;45245;51.538;11.870;2022-08-19T11:33:20;13.23;;;11.93;;
59440;SDS011;45245;51.538;11.870;2022-08-19T11:35:45;14.60;;;13.02;;
59440;SDS011;45245;51.538;11.870;2022-08-19T11:38:11;15.73;;;13.57;;
59440;SDS011;45245;51.538;11.870;2022-08-19T11:40:36;14.25;;;12.85;;
59440;SDS011;45245;51.538;11.870;2022-08-19T11:43:02;13.20;;;11.90;;
59440;SDS011;45245;51.538;11.870;2022-08-19T11:45:28;13.70;;;12.30;;
59440;SDS011;45245;51.538;11.870;2022-08-19T11:47:54;13.43;;;12.07;;
59440;SDS011;45245;51.538;11.870;2022-08-19T11:50:19;14.50;;;13.02;;
59440;SDS011;45245;51.538;11.870;2022-08-19T11:52:45;14.18;;;12.73;;
59440;SDS011;45245;51.538;11.870;2022-08-19T11:55:11;14.98;;;12.65;;
59440;SDS011;45245;51.538;11.870;2022-08-19T11:57:40;13.50;;;12.18;;
59440;SDS011;45245;51.538;11.870;2022-08-19T12:00:06;14.40;;;12.85;;
59440;SDS011;45245;51.538;11.870;2022-08-19T12:02:32;13.82;;;12.48;;
59440;SDS011;45245;51.538;11.870;2022-08-19T12:04:58;12.32;;;11.13;;
59440;SDS011;45245;51.538;11.870;2022-08-19T12:07:23;12.88;;;11.35;;
59440;SDS011;45245;51.538;11.870;2022-08-19T12:09:49;13.52;;;11.38;;
59440;SDS011;45245;51.538;11.870;2022-08-19T12:12:14;13.05;;;11.75;;
59440;SDS011;45245;51.538;11.870;2022-08-19T12:14:40;13.13;;;11.88;;
59440;SDS011;45245;51.538;11.870;2022-08-19T12:17:05;12.20;;;10.93;;
59440;SDS011;45245;51.538;11.870;2022-08-19T12:19:32;12.35;;;11.07;;
59440;SDS011;45245;51.538;11.870;2022-08-19T12:21:59;11.43;;;10.32;;
59440;SDS011;45245;51.538;11.870;2022-08-19T12:24:32;11.55;;;10.48;;
59440;SDS011;45245;51.538;11.870;2022-08-19T12:26:58;11.10;;;10.02;;
59440;SDS011;45245;51.538;11.870;2022-08-19T12:29:23;10.38;;;9.32;;
59440;SDS011;45245;51.538;11.870;2022-08-19T12:31:53;10.45;;;9.48;;
59440;SDS011;45245;51.538;11.870;2022-08-19T12:34:19;9.77;;;8.88;;
59440;SDS011;45245;51.538;11.870;2022-08-19T12:36:45;9.57;;;8.77;;
59440;SDS011;45245;51.538;11.870;2022-08-19T12:39:10;10.57;;;9.50;;
59440;SDS011;45245;51.538;11.870;2022-08-19T12:41:35;12.68;;;10.95;;
59440;SDS011;45245;51.538;11.870;2022-08-19T12:44:02;10.15;;;9.15;;
59440;SDS011;45245;51.538;11.870;2022-08-19T12:46:27;10.55;;;9.52;;
59440;SDS011;45245;51.538;11.870;2022-08-19T12:48:53;9.95;;;9.05;;
59440;SDS011;45245;51.538;11.870;2022-08-19T12:51:19;11.07;;;10.07;;
59440;SDS011;45245;51.538;11.870;2022-08-19T12:53:45;10.02;;;9.05;;
59440;SDS011;45245;51.538;11.870;2022-08-19T12:56:14;12.35;;;11.15;;
59440;SDS011;45245;51.538;11.870;2022-08-19T12:58:40;13.32;;;11.63;;
59440;SDS011;45245;51.538;11.870;2022-08-19T13:01:07;13.55;;;12.25;;
59440;SDS011;45245;51.538;11.870;2022-08-19T13:03:37;12.80;;;11.52;;
59440;SDS011;45245;51.538;11.870;2022-08-19T13:06:03;13.38;;;11.98;;
59440;SDS011;45245;51.538;11.870;2022-08-19T13:08:28;15.32;;;13.80;;
59440;SDS011;45245;51.538;11.870;2022-08-19T13:10:54;15.40;;;13.95;;
59440;SDS011;45245;51.538;11.870;2022-08-19T13:13:19;14.85;;;13.38;;
59440;SDS011;45245;51.538;11.870;2022-08-19T13:15:44;15.80;;;14.25;;
59440;SDS011;45245;51.538;11.870;2022-08-19T13:18:10;17.83;;;16.05;;
59440;SDS011;45245;51.538;11.870;2022-08-19T13:20:37;16.52;;;14.60;;
59440;SDS011;45245;51.538;11.870;2022-08-19T13:23:03;17.83;;;16.13;;
59440;SDS011;45245;51.538;11.870;2022-08-19T13:25:29;17.33;;;15.35;;
59440;SDS011;45245;51.538;11.870;2022-08-19T13:27:54;18.00;;;16.08;;
59440;SDS011;45245;51.538;11.870;2022-08-19T13:30:20;17.35;;;15.65;;
59440;SDS011;45245;51.538;11.870;2022-08-19T13:33:04;17.38;;;15.73;;
59440;SDS011;45245;51.538;11.870;2022-08-19T13:35:40;17.08;;;15.27;;
59440;SDS011;45245;51.538;11.870;2022-08-19T13:38:22;16.13;;;14.48;;
59440;SDS011;45245;51.538;11.870;2022-08-19T13:40:48;17.50;;;15.35;;
59440;SDS011;45245;51.538;11.870;2022-08-19T13:43:15;16.85;;;15.15;;
59440;SDS011;45245;51.538;11.870;2022-08-19T13:45:42;17.80;;;16.10;;
59440;SDS011;45245;51.538;11.870;2022-08-19T13:48:09;18.63;;;16.77;;
59440;SDS011;45245;51.538;11.870;2022-08-19T13:50:37;17.50;;;15.70;;
59440;SDS011;45245;51.538;11.870;2022-08-19T13:53:07;17.02;;;15.45;;
59440;SDS011;45245;51.538;11.870;2022-08-19T13:55:34;17.35;;;15.55;;
59440;SDS011;45245;51.538;11.870;2022-08-19T13:58:00;16.27;;;14.77;;
59440;SDS011;45245;51.538;11.870;2022-08-19T14:00:31;15.90;;;14.32;;
59440;SDS011;45245;51.538;11.870;2022-08-19T14:02:57;16.63;;;14.93;;
59440;SDS011;45245;51.538;11.870;2022-08-19T14:05:24;17.75;;;15.82;;
59440;SDS011;45245;51.538;11.870;2022-08-19T14:07:51;15.63;;;14.07;;
59440;SDS011;45245;51.538;11.870;2022-08-19T14:10:16;15.23;;;13.82;;
59440;SDS011;45245;51.538;11.870;2022-08-19T14:12:42;15.75;;;14.25;;
59440;SDS011;45245;51.538;11.870;2022-08-19T14:15:09;14.93;;;13.52;;
59440;SDS011;45245;51.538;11.870;2022-08-19T14:17:37;15.10;;;13.70;;
59440;SDS011;45245;51.538;11.870;2022-08-19T14:20:05;15.20;;;13.73;;
59440;SDS011;45245;51.538;11.870;2022-08-19T14:22:34;14.27;;;12.98;;
59440;SDS011;45245;51.538;11.870;2022-08-19T14:27:32;13.40;;;12.20;;
59440;SDS011;45245;51.538;11.870;2022-08-19T14:29:58;13.75;;;12.45;;
59440;SDS011;45245;51.538;11.870;2022-08-19T14:32:24;14.15;;;12.85;;
59440;SDS011;45245;51.538;11.870;2022-08-19T14:34:53;13.85;;;12.60;;
59440;SDS011;45245;51.538;11.870;2022-08-19T14:37:19;14.82;;;13.43;;
59440;SDS011;45245;51.538;11.870;2022-08-19T14:43:07;12.95;;;11.65;;
59440;SDS011;45245;51.538;11.870;2022-08-19T14:45:34;12.15;;;11.05;;
59440;SDS011;45245;51.538;11.870;2022-08-19T14:48:00;12.93;;;11.82;;
59440;SDS011;45245;51.538;11.870;2022-08-19T14:50:26;13.00;;;11.70;;
59440;SDS011;45245;51.538;11.870;2022-08-19T14:52:57;12.85;;;11.65;;
59440;SDS011;45245;51.538;11.870;2022-08-19T14:55:25;12.57;;;11.48;;
59440;SDS011;45245;51.538;11.870;2022-08-19T14:57:50;13.70;;;12.40;;
59440;SDS011;45245;51.538;11.870;2022-08-19T15:00:16;13.52;;;12.32;;
59440;SDS011;45245;51.538;11.870;2022-08-19T15:02:41;12.32;;;11.07;;
59440;SDS011;45245;51.538;11.870;2022-08-19T15:05:09;12.90;;;11.73;;
59440;SDS011;45245;51.538;11.870;2022-08-19T15:07:34;12.98;;;11.82;;
59440;SDS011;45245;51.538;11.870;2022-08-19T15:09:59;12.65;;;11.38;;
59440;SDS011;45245;51.538;11.870;2022-08-19T15:12:25;13.13;;;11.93;;
59440;SDS011;45245;51.538;11.870;2022-08-19T15:14:50;12.52;;;11.52;;
59440;SDS011;45245;51.538;11.870;2022-08-19T15:17:16;12.13;;;10.95;;
59440;SDS011;45245;51.538;11.870;2022-08-19T15:19:44;11.93;;;10.88;;
59440;SDS011;45245;51.538;11.870;2022-08-19T15:22:09;11.63;;;10.52;;
59440;SDS011;45245;51.538;11.870;2022-08-19T15:24:35;12.85;;;11.63;;
59440;SDS011;45245;51.538;11.870;2022-08-19T15:27:00;12.55;;;11.45;;
59440;SDS011;45245;51.538;11.870;2022-08-19T15:29:26;12.98;;;11.77;;
59440;SDS011;45245;51.538;11.870;2022-08-19T15:31:52;12.68;;;11.57;;
59440;SDS011;45245;51.538;11.870;2022-08-19T15:34:20;12.75;;;11.75;;
59440;SDS011;45245;51.538;11.870;2022-08-19T15:36:45;11.88;;;10.88;;
59440;SDS011;45245;51.538;11.870;2022-08-19T15:39:12;12.40;;;11.30;;
59440;SDS011;45245;51.538;11.870;2022-08-19T15:41:37;11.95;;;10.75;;
59440;SDS011;45245;51.538;11.870;2022-08-19T15:44:06;11.90;;;10.80;;
59440;SDS011;45245;51.538;11.870;2022-08-19T15:46:34;12.13;;;11.13;;
59440;SDS011;45245;51.538;11.870;2022-08-19T15:49:02;11.93;;;10.80;;
59440;SDS011;45245;51.538;11.870;2022-08-19T15:51:29;11.98;;;10.88;;
59440;SDS011;45245;51.538;11.870;2022-08-19T15:53:55;12.02;;;10.98;;
59440;SDS011;45245;51.538;11.870;2022-08-19T15:56:22;10.77;;;9.85;;
59440;SDS011;45245;51.538;11.870;2022-08-19T15:58:47;12.55;;;11.50;;
59440;SDS011;45245;51.538;11.870;2022-08-19T16:01:31;11.30;;;10.40;;
59440;SDS011;45245;51.538;11.870;2022-08-19T16:04:15;11.13;;;10.13;;
59440;SDS011;45245;51.538;11.870;2022-08-19T16:07:00;11.23;;;10.18;;
59440;SDS011;45245;51.538;11.870;2022-08-19T16:09:28;11.75;;;10.77;;
59440;SDS011;45245;51.538;11.870;2022-08-19T16:11:55;11.48;;;10.52;;
59440;SDS011;45245;51.538;11.870;2022-08-19T16:14:22;11.73;;;10.73;;
59440;SDS011;45245;51.538;11.870;2022-08-19T16:16:49;11.68;;;10.68;;
59440;SDS011;45245;51.538;11.870;2022-08-19T16:19:15;11.40;;;10.45;;
59440;SDS011;45245;51.538;11.870;2022-08-19T16:21:46;10.60;;;9.60;;
59440;SDS011;45245;51.538;11.870;2022-08-19T16:24:15;10.45;;;9.65;;
59440;SDS011;45245;51.538;11.870;2022-08-19T16:26:42;10.15;;;9.35;;
59440;SDS011;45245;51.538;11.870;2022-08-19T16:29:08;10.52;;;9.63;;
59440;SDS011;45245;51.538;11.870;2022-08-19T16:31:34;10.75;;;9.85;;
59440;SDS011;45245;51.538;11.870;2022-08-19T16:37:01;10.75;;;9.85;;
59440;SDS011;45245;51.538;11.870;2022-08-19T16:39:27;11.00;;;10.02;;
59440;SDS011;45245;51.538;11.870;2022-08-19T16:41:52;10.13;;;9.32;;
59440;SDS011;45245;51.538;11.870;2022-08-19T16:44:19;10.88;;;9.98;;
59440;SDS011;45245;51.538;11.870;2022-08-19T16:46:44;10.20;;;9.30;;
59440;SDS011;45245;51.538;11.870;2022-08-19T16:49:11;9.77;;;8.93;;
59440;SDS011;45245;51.538;11.870;2022-08-19T16:51:37;10.48;;;9.65;;
59440;SDS011;45245;51.538;11.870;2022-08-19T16:54:03;10.88;;;9.95;;
59440;SDS011;45245;51.538;11.870;2022-08-19T16:56:29;10.63;;;9.73;;
59440;SDS011;45245;51.538;11.870;2022-08-19T17:01:41;10.18;;;9.27;;
59440;SDS011;45245;51.538;11.870;2022-08-19T17:04:08;10.45;;;9.50;;
59440;SDS011;45245;51.538;11.870;2022-08-19T17:06:34;10.98;;;10.05;;
59440;SDS011;45245;51.538;11.870;2022-08-19T17:09:01;10.68;;;9.25;;
59440;SDS011;45245;51.538;11.870;2022-08-19T17:11:30;10.55;;;9.63;;
59440;SDS011;45245;51.538;11.870;2022-08-19T17:13:57;9.93;;;9.02;;
59440;SDS011;45245;51.538;11.870;2022-08-19T17:16:24;10.52;;;9.52;;
59440;SDS011;45245;51.538;11.870;2022-08-19T17:19:01;9.85;;;8.95;;
59440;SDS011;45245;51.538;11.870;2022-08-19T17:21:29;9.90;;;9.10;;
59440;SDS011;45245;51.538;11.870;2022-08-19T17:23:59;9.73;;;8.82;;
59440;SDS011;45245;51.538;11.870;2022-08-19T17:26:29;10.17;;;9.30;;
59440;SDS011;45245;51.538;11.870;2022-08-19T17:28:55;9.95;;;9.13;;
59440;SDS011;45245;51.538;11.870;2022-08-19T17:31:28;8.82;;;8.13;;
59440;SDS011;45245;51.538;11.870;2022-08-19T17:33:54;9.68;;;8.77;;
59440;SDS011;45245;51.538;11.870;2022-08-19T17:36:23;9.52;;;8.45;;
59440;SDS011;45245;51.538;11.870;2022-08-19T17:38:51;8.80;;;7.97;;
59440;SDS011;45245;51.538;11.870;2022-08-19T17:41:16;8.52;;;7.78;;
59440;SDS011;45245;51.538;11.870;2022-08-19T17:43:42;8.55;;;7.85;;
59440;SDS011;45245;51.538;11.870;2022-08-19T17:46:08;9.27;;;8.38;;
59440;SDS011;45245;51.538;11.870;2022-08-19T17:48:34;8.80;;;8.02;;
59440;SDS011;45245;51.538;11.870;2022-08-19T17:51:20;8.65;;;7.95;;
59440;SDS011;45245;51.538;11.870;2022-08-19T17:53:53;10.07;;;9.23;;
59440;SDS011;45245;51.538;11.870;2022-08-19T17:56:19;8.80;;;8.00;;
59440;SDS011;45245;51.538;11.870;2022-08-19T17:58:45;9.13;;;8.20;;
59440;SDS011;45245;51.538;11.870;2022-08-19T18:01:12;8.88;;;8.05;;